Time;durP1;ratioP1;P1;durP2;ratioP2;P2;SDS_P1;SDS_P2;PMS_P1;PMS_P2;Temp;Humidity;BMP_temperature;BMP_pressure;BME280_temperature;BME280_humidity;BME280_pressure;Samples;Min_cycle;Max_cycle;Signal;HPM_P1;HPM_P2
2022/06/26 00:01:17;;;;;;;3.05;1.33;;;;;;;;;;5024584;28;20379;-89
2022/06/26 00:03:43;;;;;;;2.40;0.70;;;;;;;;;;5057927;28;20048;-90
2022/06/26 00:06:11;;;;;;;1.77;0.90;;;;;;;;;;5057950;28;20037;-90
2022/06/26 00:08:43;;;;;;;2.70;1.25;;;;;;;;;;5041335;28;20119;-89
2022/06/26 00:11:09;;;;;;;2.85;1.33;;;;;;;;;;5041244;28;20529;-90
2022/06/26 00:13:37;;;;;;;2.97;1.20;;;;;;;;;;5041330;28;20503;-88
2022/06/26 00:16:05;;;;;;;3.80;0.90;;;;;;;;;;5041136;28;20111;-89
2022/06/26 00:18:31;;;;;;;3.53;0.70;;;;;;;;;;5024417;28;20033;-90
2022/06/26 00:20:56;;;;;;;1.98;1.02;;;;;;;;;;5024823;28;20044;-90
2022/06/26 00:23:21;;;;;;;2.50;1.02;;;;;;;;;;5024411;28;20029;-90
2022/06/26 00:25:50;;;;;;;3.70;1.17;;;;;;;;;;5040717;28;20032;-90
2022/06/26 00:28:17;;;;;;;1.00;0.68;;;;;;;;;;5040228;28;20028;-90
2022/06/26 00:30:43;;;;;;;2.58;0.90;;;;;;;;;;5024295;28;20037;-90
2022/06/26 00:33:10;;;;;;;2.30;0.90;;;;;;;;;;5024400;28;20046;-90
2022/06/26 00:35:39;;;;;;;2.70;1.00;;;;;;;;;;5040790;28;20028;-90
2022/06/26 00:38:04;;;;;;;2.38;0.90;;;;;;;;;;5040543;28;20032;-90
2022/06/26 00:40:30;;;;;;;3.10;0.82;;;;;;;;;;5024330;28;20038;-90
2022/06/26 00:42:57;;;;;;;4.30;1.15;;;;;;;;;;5024639;28;20109;-90
2022/06/26 00:45:25;;;;;;;3.08;0.93;;;;;;;;;;5024157;28;20115;-90
2022/06/26 00:47:52;;;;;;;2.80;1.20;;;;;;;;;;5024208;28;20033;-90
2022/06/26 00:50:17;;;;;;;2.00;0.80;;;;;;;;;;5008192;28;20115;-90
2022/06/26 00:52:46;;;;;;;3.55;1.45;;;;;;;;;;5024227;28;20115;-90
2022/06/26 00:55:12;;;;;;;4.25;1.38;;;;;;;;;;5007634;28;20429;-90
2022/06/26 00:57:38;;;;;;;5.00;1.35;;;;;;;;;;5007875;28;20024;-88
2022/06/26 01:00:04;;;;;;;2.35;0.80;;;;;;;;;;5007227;28;20212;-90
2022/06/26 01:02:33;;;;;;;2.00;0.90;;;;;;;;;;5007507;28;20029;-90
2022/06/26 01:04:59;;;;;;;2.60;0.88;;;;;;;;;;5040565;28;20032;-90
2022/06/26 01:07:26;;;;;;;3.40;0.90;;;;;;;;;;5007585;28;20056;-90
2022/06/26 01:09:51;;;;;;;2.42;0.90;;;;;;;;;;5007156;28;20035;-90
2022/06/26 01:12:19;;;;;;;2.05;0.85;;;;;;;;;;5007408;28;20413;-91
2022/06/26 01:14:48;;;;;;;2.53;0.80;;;;;;;;;;5006973;28;20040;-91
2022/06/26 01:17:16;;;;;;;5.05;1.05;;;;;;;;;;5023231;28;20040;-90
2022/06/26 01:19:45;;;;;;;1.65;0.60;;;;;;;;;;5007040;28;20092;-90
2022/06/26 01:22:10;;;;;;;2.45;1.10;;;;;;;;;;5039673;28;20089;-91
2022/06/26 01:24:37;;;;;;;2.63;1.00;;;;;;;;;;5007062;28;20135;-85
2022/06/26 01:27:03;;;;;;;1.92;0.95;;;;;;;;;;5006543;28;20036;-86
2022/06/26 01:29:29;;;;;;;2.03;0.85;;;;;;;;;;5006018;28;20029;-86
2022/06/26 01:31:57;;;;;;;1.58;1.08;;;;;;;;;;5022172;28;20101;-88
2022/06/26 01:34:25;;;;;;;2.33;0.90;;;;;;;;;;5022969;28;20029;-88
2022/06/26 01:36:53;;;;;;;1.33;0.73;;;;;;;;;;5022900;28;20368;-88
2022/06/26 01:39:21;;;;;;;1.58;0.88;;;;;;;;;;5005752;28;20525;-88
2022/06/26 01:41:49;;;;;;;1.98;1.25;;;;;;;;;;5023052;28;20036;-88
2022/06/26 01:44:16;;;;;;;1.45;0.80;;;;;;;;;;5007098;28;20036;-87
2022/06/26 01:46:44;;;;;;;1.85;1.17;;;;;;;;;;5038742;28;20119;-88
2022/06/26 01:49:12;;;;;;;2.63;0.90;;;;;;;;;;5023141;28;20036;-88
2022/06/26 01:51:41;;;;;;;1.67;0.90;;;;;;;;;;5039560;28;20041;-88
2022/06/26 01:54:08;;;;;;;2.67;0.70;;;;;;;;;;5023253;28;20570;-88
2022/06/26 01:56:35;;;;;;;1.33;0.50;;;;;;;;;;5038844;28;20494;-89
2022/06/26 01:59:04;;;;;;;3.15;1.00;;;;;;;;;;5022350;28;20524;-87
2022/06/26 02:01:31;;;;;;;4.15;1.20;;;;;;;;;;5038516;28;20086;-87
2022/06/26 02:03:57;;;;;;;3.47;1.55;;;;;;;;;;5055861;28;20040;-88
2022/06/26 02:06:26;;;;;;;1.77;0.90;;;;;;;;;;5038910;28;20048;-88
2022/06/26 02:08:54;;;;;;;1.63;0.85;;;;;;;;;;5022574;28;20037;-88
2022/06/26 02:14:09;;;;;;;1.67;0.93;;;;;;;;;;5055400;28;20057;-88
2022/06/26 02:16:36;;;;;;;1.60;0.60;;;;;;;;;;5022630;28;20101;-88
2022/06/26 02:19:04;;;;;;;3.03;1.08;;;;;;;;;;5022337;28;20032;-88
2022/06/26 02:21:35;;;;;;;2.83;1.17;;;;;;;;;;5006087;28;20033;-88
2022/06/26 02:24:03;;;;;;;2.85;0.60;;;;;;;;;;5022657;28;20059;-88
2022/06/26 02:26:28;;;;;;;3.50;0.80;;;;;;;;;;5038377;28;20032;-88
2022/06/26 02:28:55;;;;;;;1.52;0.60;;;;;;;;;;5038146;28;20064;-89
2022/06/26 02:31:20;;;;;;;2.10;0.50;;;;;;;;;;5021591;28;20047;-88
2022/06/26 02:33:45;;;;;;;1.65;0.82;;;;;;;;;;5021586;28;20041;-88
2022/06/26 02:36:11;;;;;;;1.73;0.80;;;;;;;;;;5022057;28;20499;-88
2022/06/26 02:38:37;;;;;;;1.67;0.60;;;;;;;;;;5038228;28;20046;-88
2022/06/26 02:41:03;;;;;;;1.48;0.68;;;;;;;;;;5038408;28;20068;-88
2022/06/26 02:43:29;;;;;;;1.63;0.70;;;;;;;;;;5021647;28;20513;-88
2022/06/26 02:45:55;;;;;;;1.77;0.75;;;;;;;;;;5004963;28;20029;-89
2022/06/26 02:48:21;;;;;;;1.52;0.80;;;;;;;;;;5022147;28;20033;-89
2022/06/26 02:50:47;;;;;;;2.50;0.77;;;;;;;;;;5021731;28;20035;-89
2022/06/26 02:53:13;;;;;;;0.73;0.38;;;;;;;;;;5022177;28;20044;-89
2022/06/26 02:55:38;;;;;;;1.23;0.47;;;;;;;;;;5021607;28;20036;-88
2022/06/26 02:58:04;;;;;;;0.70;0.50;;;;;;;;;;5021295;28;20159;-89
2022/06/26 03:00:30;;;;;;;1.27;0.68;;;;;;;;;;5004698;28;20123;-89
2022/06/26 03:02:57;;;;;;;1.90;0.60;;;;;;;;;;5021715;28;20529;-89
2022/06/26 03:05:22;;;;;;;1.92;0.90;;;;;;;;;;5005642;28;20040;-89
2022/06/26 03:07:51;;;;;;;2.15;0.80;;;;;;;;;;5021980;28;20070;-89
2022/06/26 03:10:17;;;;;;;2.60;0.70;;;;;;;;;;5021885;28;20028;-89
2022/06/26 03:12:46;;;;;;;1.85;0.68;;;;;;;;;;5021322;28;20048;-88
2022/06/26 03:15:12;;;;;;;1.38;0.40;;;;;;;;;;5021586;28;20067;-88
2022/06/26 03:17:37;;;;;;;0.60;0.28;;;;;;;;;;5021192;28;20063;-89
2022/06/26 03:20:07;;;;;;;1.25;0.50;;;;;;;;;;5021644;28;20399;-89
2022/06/26 03:22:33;;;;;;;1.42;0.60;;;;;;;;;;5021865;28;20124;-89
2022/06/26 03:24:59;;;;;;;1.63;0.60;;;;;;;;;;5021900;28;20037;-89
2022/06/26 03:27:32;;;;;;;0.70;0.32;;;;;;;;;;5021424;28;20036;-89
2022/06/26 03:29:58;;;;;;;1.50;0.40;;;;;;;;;;5021799;28;20036;-89
2022/06/26 03:32:24;;;;;;;1.83;0.70;;;;;;;;;;5005207;28;20043;-89
2022/06/26 03:34:50;;;;;;;1.25;0.50;;;;;;;;;;5005085;28;20028;-89
2022/06/26 03:37:18;;;;;;;1.17;0.50;;;;;;;;;;5021719;28;20032;-89
2022/06/26 03:39:44;;;;;;;2.28;0.80;;;;;;;;;;5021580;28;20090;-89
2022/06/26 03:42:10;;;;;;;1.95;0.40;;;;;;;;;;5037671;28;20036;-89
2022/06/26 03:44:37;;;;;;;1.25;0.30;;;;;;;;;;5024794;28;20464;-89
2022/06/26 03:47:04;;;;;;;1.17;0.35;;;;;;;;;;5038009;28;20040;-89
2022/06/26 03:49:33;;;;;;;1.42;0.35;;;;;;;;;;5038082;28;20028;-89
2022/06/26 03:51:59;;;;;;;0.70;0.38;;;;;;;;;;5021979;28;20037;-89
2022/06/26 03:54:27;;;;;;;1.60;0.65;;;;;;;;;;5037769;28;20033;-89
2022/06/26 03:56:55;;;;;;;0.70;0.40;;;;;;;;;;5037905;28;20033;-89
2022/06/26 03:59:21;;;;;;;1.58;0.57;;;;;;;;;;5037544;28;20024;-89
2022/06/26 04:01:47;;;;;;;1.17;0.30;;;;;;;;;;5021815;28;20170;-89
2022/06/26 04:04:12;;;;;;;1.30;0.80;;;;;;;;;;5024472;28;20036;-88
2022/06/26 04:06:37;;;;;;;1.45;0.40;;;;;;;;;;5025041;28;20033;-88
2022/06/26 04:09:05;;;;;;;1.48;0.60;;;;;;;;;;5024766;28;20032;-89
2022/06/26 04:11:31;;;;;;;1.20;0.45;;;;;;;;;;5041187;28;20032;-89
2022/06/26 04:13:58;;;;;;;2.30;0.35;;;;;;;;;;5041230;28;20086;-89
2022/06/26 04:16:25;;;;;;;1.92;0.60;;;;;;;;;;5040826;28;20048;-89
2022/06/26 04:18:52;;;;;;;1.52;0.40;;;;;;;;;;5057716;28;20037;-89
2022/06/26 04:21:18;;;;;;;1.88;0.52;;;;;;;;;;5041211;28;20080;-89
2022/06/26 04:23:44;;;;;;;0.82;0.40;;;;;;;;;;5041110;28;20021;-89
2022/06/26 04:26:10;;;;;;;2.70;0.73;;;;;;;;;;5024457;28;20086;-89
2022/06/26 04:28:36;;;;;;;1.65;0.50;;;;;;;;;;5024352;28;20028;-88
2022/06/26 04:31:01;;;;;;;2.92;0.65;;;;;;;;;;5040458;28;20036;-89
2022/06/26 04:33:28;;;;;;;1.52;0.32;;;;;;;;;;5040894;28;20048;-89
2022/06/26 04:35:56;;;;;;;0.82;0.38;;;;;;;;;;5024502;28;20044;-89
2022/06/26 04:38:23;;;;;;;2.72;0.40;;;;;;;;;;5040383;28;20036;-87
2022/06/26 04:40:52;;;;;;;2.00;0.68;;;;;;;;;;5040114;28;20043;-88
2022/06/26 04:43:19;;;;;;;0.88;0.38;;;;;;;;;;5023966;28;20395;-86
2022/06/26 04:45:45;;;;;;;1.95;0.50;;;;;;;;;;5026538;28;20040;-87
2022/06/26 04:48:12;;;;;;;1.75;0.73;;;;;;;;;;5023470;28;20028;-87
2022/06/26 04:50:40;;;;;;;1.73;0.30;;;;;;;;;;5023279;28;20041;-88
2022/06/26 04:53:09;;;;;;;1.75;0.77;;;;;;;;;;5024092;28;20391;-87
2022/06/26 04:55:35;;;;;;;1.65;0.50;;;;;;;;;;5023448;28;20037;-87
2022/06/26 04:58:02;;;;;;;0.82;0.43;;;;;;;;;;5039749;28;20029;-87
2022/06/26 05:00:27;;;;;;;2.50;0.82;;;;;;;;;;5023118;28;20047;-87
2022/06/26 05:02:53;;;;;;;1.30;0.40;;;;;;;;;;5023147;28;20040;-86
2022/06/26 05:05:21;;;;;;;2.15;0.60;;;;;;;;;;5023162;28;20052;-89
2022/06/26 05:07:49;;;;;;;2.05;0.73;;;;;;;;;;5056936;28;20041;-89
2022/06/26 05:10:15;;;;;;;2.33;0.80;;;;;;;;;;5023260;28;20044;-90
2022/06/26 05:12:44;;;;;;;2.10;0.40;;;;;;;;;;5006899;28;20036;-87
2022/06/26 05:15:09;;;;;;;1.23;0.40;;;;;;;;;;5022847;28;20089;-87
2022/06/26 05:17:35;;;;;;;2.28;0.60;;;;;;;;;;5023324;28;20075;-86
2022/06/26 05:20:00;;;;;;;5.10;0.95;;;;;;;;;;5023018;28;20111;-86
2022/06/26 05:22:25;;;;;;;5.10;0.57;;;;;;;;;;5022845;28;20401;-88
2022/06/26 05:24:51;;;;;;;4.43;1.02;;;;;;;;;;5023042;28;20546;-89
2022/06/26 05:27:17;;;;;;;2.53;0.68;;;;;;;;;;5022908;28;20037;-88
2022/06/26 05:29:43;;;;;;;3.08;0.80;;;;;;;;;;5022281;28;20090;-88
2022/06/26 05:32:08;;;;;;;1.95;0.70;;;;;;;;;;5022186;28;20036;-88
2022/06/26 05:34:37;;;;;;;4.50;0.82;;;;;;;;;;5022667;28;20040;-88
2022/06/26 05:37:02;;;;;;;3.40;0.95;;;;;;;;;;5022549;28;20082;-87
2022/06/26 05:39:28;;;;;;;3.50;0.90;;;;;;;;;;5005908;28;20040;-87
2022/06/26 05:41:55;;;;;;;2.92;0.88;;;;;;;;;;5006489;28;20160;-87
2022/06/26 05:44:23;;;;;;;2.90;0.70;;;;;;;;;;5018968;28;20115;-86
2022/06/26 05:46:48;;;;;;;3.63;0.90;;;;;;;;;;5002393;28;20052;-89
2022/06/26 05:49:17;;;;;;;2.50;0.80;;;;;;;;;;5018899;28;20041;-86
2022/06/26 05:51:42;;;;;;;2.15;0.60;;;;;;;;;;5018592;28;20037;-86
2022/06/26 05:54:08;;;;;;;2.88;0.80;;;;;;;;;;5019026;28;20092;-87
2022/06/26 05:56:33;;;;;;;1.98;0.70;;;;;;;;;;5002367;28;20083;-87
2022/06/26 05:59:00;;;;;;;4.65;0.88;;;;;;;;;;4986328;28;20032;-86
2022/06/26 06:01:25;;;;;;;3.10;0.70;;;;;;;;;;5018285;28;20033;-85
2022/06/26 06:03:52;;;;;;;1.45;0.60;;;;;;;;;;5018456;28;20067;-86
2022/06/26 06:06:18;;;;;;;15.27;0.77;;;;;;;;;;5018311;28;20040;-86
2022/06/26 06:08:46;;;;;;;2.55;0.82;;;;;;;;;;5018553;28;20051;-86
2022/06/26 06:11:14;;;;;;;2.00;0.88;;;;;;;;;;4986011;28;20033;-87
2022/06/26 06:13:41;;;;;;;4.05;0.70;;;;;;;;;;5002424;28;20028;-85
2022/06/26 06:16:07;;;;;;;2.75;1.70;;;;;;;;;;4985821;28;20056;-87
2022/06/26 06:18:38;;;;;;;2.95;0.65;;;;;;;;;;5018417;28;20048;-87
2022/06/26 06:21:04;;;;;;;2.83;0.55;;;;;;;;;;5018276;28;20033;-87
2022/06/26 06:23:32;;;;;;;4.88;1.02;;;;;;;;;;5018282;28;20176;-86
2022/06/26 06:25:58;;;;;;;1.40;0.50;;;;;;;;;;5017647;28;20032;-87
2022/06/26 06:28:24;;;;;;;3.28;0.52;;;;;;;;;;5001883;28;20036;-84
2022/06/26 06:30:49;;;;;;;3.33;0.57;;;;;;;;;;5017347;28;20544;-86
2022/06/26 06:33:15;;;;;;;1.95;0.77;;;;;;;;;;5018191;28;20427;-84
2022/06/26 06:35:41;;;;;;;3.65;0.68;;;;;;;;;;5001703;28;20033;-87
2022/06/26 06:38:07;;;;;;;3.13;0.63;;;;;;;;;;5018761;28;20175;-85
2022/06/26 06:40:33;;;;;;;2.42;0.38;;;;;;;;;;5001765;28;20040;-84
2022/06/26 06:42:58;;;;;;;8.25;0.60;;;;;;;;;;5018202;28;20041;-89
2022/06/26 06:45:25;;;;;;;1.23;0.47;;;;;;;;;;4998756;28;20483;-86
2022/06/26 06:47:50;;;;;;;2.45;0.60;;;;;;;;;;5005138;28;20029;-84
2022/06/26 06:50:16;;;;;;;2.08;0.50;;;;;;;;;;5021047;28;20128;-83
2022/06/26 06:52:42;;;;;;;2.35;0.50;;;;;;;;;;5021826;28;20043;-86
2022/06/26 06:55:08;;;;;;;1.00;0.50;;;;;;;;;;5021135;28;20025;-87
2022/06/26 06:57:33;;;;;;;2.83;0.55;;;;;;;;;;5003620;28;20439;-85
2022/06/26 06:59:58;;;;;;;4.13;1.02;;;;;;;;;;5020521;28;20032;-84
2022/06/26 07:02:24;;;;;;;6.28;0.93;;;;;;;;;;5036916;28;20036;-85
2022/06/26 07:04:49;;;;;;;5.68;0.90;;;;;;;;;;5019769;28;20111;-84
2022/06/26 07:07:15;;;;;;;2.85;0.65;;;;;;;;;;5020864;28;20033;-86
2022/06/26 07:09:40;;;;;;;7.03;0.95;;;;;;;;;;5020286;28;20047;-85
2022/06/26 07:12:06;;;;;;;6.35;0.70;;;;;;;;;;5003933;28;20408;-85
2022/06/26 07:14:31;;;;;;;3.08;0.77;;;;;;;;;;5021337;28;20033;-85
2022/06/26 07:16:57;;;;;;;2.42;0.60;;;;;;;;;;5019128;28;20045;-86
2022/06/26 07:19:22;;;;;;;5.25;0.60;;;;;;;;;;5028716;28;20036;-86
2022/06/26 07:21:48;;;;;;;3.28;0.70;;;;;;;;;;5011394;28;20040;-86
2022/06/26 07:24:14;;;;;;;6.68;1.70;;;;;;;;;;5002544;28;20448;-85
2022/06/26 07:26:39;;;;;;;3.00;0.80;;;;;;;;;;4998770;28;20051;-85
2022/06/26 07:29:05;;;;;;;3.33;0.68;;;;;;;;;;5023226;28;20074;-86
2022/06/26 07:31:30;;;;;;;3.42;0.90;;;;;;;;;;5034956;28;20414;-86
2022/06/26 07:34:15;;;;;;;5.43;0.55;;;;;;;;;;5018655;28;20460;-86
2022/06/26 07:36:41;;;;;;;2.47;0.50;;;;;;;;;;5011049;28;20056;-86
2022/06/26 07:39:07;;;;;;;3.80;0.68;;;;;;;;;;5023044;28;20045;-86
2022/06/26 07:41:33;;;;;;;4.97;0.93;;;;;;;;;;5008115;28;20089;-85
2022/06/26 07:43:58;;;;;;;5.32;1.90;;;;;;;;;;5040449;28;20045;-86
2022/06/26 07:46:24;;;;;;;3.97;0.70;;;;;;;;;;5024291;28;20124;-86
2022/06/26 07:48:49;;;;;;;3.03;0.90;;;;;;;;;;5007919;28;20046;-86
2022/06/26 07:51:14;;;;;;;3.42;0.85;;;;;;;;;;5024538;28;20119;-85
2022/06/26 07:53:40;;;;;;;4.25;1.02;;;;;;;;;;5024060;28;20055;-86
2022/06/26 07:56:05;;;;;;;2.83;0.80;;;;;;;;;;5024097;28;20411;-86
2022/06/26 07:58:31;;;;;;;3.22;1.15;;;;;;;;;;5040433;28;20028;-86
2022/06/26 08:00:56;;;;;;;3.28;1.02;;;;;;;;;;5007745;28;20037;-87
2022/06/26 08:03:23;;;;;;;4.18;1.63;;;;;;;;;;5023532;28;20407;-86
2022/06/26 08:05:48;;;;;;;5.72;2.38;;;;;;;;;;5007389;28;20518;-86
2022/06/26 08:08:15;;;;;;;5.15;1.92;;;;;;;;;;5024188;28;20517;-87
2022/06/26 08:10:41;;;;;;;4.75;1.80;;;;;;;;;;5024041;28;20074;-86
2022/06/26 08:13:06;;;;;;;4.03;2.10;;;;;;;;;;5007237;28;20036;-86
2022/06/26 08:15:32;;;;;;;5.40;2.22;;;;;;;;;;5023629;28;20453;-87
2022/06/26 08:17:58;;;;;;;4.72;1.80;;;;;;;;;;5006968;28;20539;-88
2022/06/26 08:20:24;;;;;;;6.90;1.83;;;;;;;;;;5023725;28;20418;-88
2022/06/26 08:22:49;;;;;;;7.55;1.92;;;;;;;;;;5007629;28;20036;-86
2022/06/26 08:25:15;;;;;;;5.47;1.70;;;;;;;;;;5007246;28;20046;-87
2022/06/26 08:27:46;;;;;;;5.60;1.30;;;;;;;;;;5007050;28;20035;-87
2022/06/26 08:30:12;;;;;;;6.65;1.95;;;;;;;;;;5004029;28;20037;-85
2022/06/26 08:32:37;;;;;;;8.73;1.80;;;;;;;;;;5036048;28;20095;-86
2022/06/26 08:35:06;;;;;;;6.28;1.27;;;;;;;;;;5019613;28;20214;-84
2022/06/26 08:37:32;;;;;;;5.47;1.73;;;;;;;;;;5031263;28;20021;-84
2022/06/26 08:39:57;;;;;;;6.00;1.27;;;;;;;;;;4987291;28;20093;-84
2022/06/26 08:42:23;;;;;;;5.90;1.52;;;;;;;;;;4987497;28;20032;-84
2022/06/26 08:44:49;;;;;;;4.22;1.10;;;;;;;;;;5023079;28;20052;-85
2022/06/26 08:47:17;;;;;;;3.40;1.20;;;;;;;;;;5038595;28;20025;-84
2022/06/26 08:49:42;;;;;;;7.68;1.52;;;;;;;;;;5022729;28;20040;-85
2022/06/26 08:52:13;;;;;;;5.15;0.80;;;;;;;;;;5055895;28;20483;-84
2022/06/26 08:54:38;;;;;;;22.98;12.65;;;;;;;;;;5023131;28;20032;-84
2022/06/26 08:57:04;;;;;;;32.70;21.20;;;;;;;;;;5022485;28;20033;-84
2022/06/26 08:59:29;;;;;;;18.90;11.90;;;;;;;;;;5022262;28;20094;-83
2022/06/26 09:01:55;;;;;;;17.25;10.18;;;;;;;;;;5021613;28;20101;-83
2022/06/26 09:04:21;;;;;;;12.02;7.60;;;;;;;;;;5006046;28;20086;-84
2022/06/26 09:06:46;;;;;;;14.50;8.68;;;;;;;;;;5038805;28;20029;-84
2022/06/26 09:09:15;;;;;;;12.77;6.70;;;;;;;;;;5022138;28;20039;-84
2022/06/26 09:11:41;;;;;;;9.90;5.47;;;;;;;;;;5022158;28;20020;-83
2022/06/26 09:14:06;;;;;;;9.88;5.00;;;;;;;;;;5022151;28;20085;-84
2022/06/26 09:16:32;;;;;;;11.38;5.50;;;;;;;;;;5036943;28;20032;-84
2022/06/26 09:19:16;;;;;;;10.57;3.53;;;;;;;;;;5021703;28;20483;-84
2022/06/26 09:21:41;;;;;;;8.60;4.55;;;;;;;;;;5022572;28;20081;-84
2022/06/26 09:24:10;;;;;;;9.80;4.60;;;;;;;;;;5022438;28;20123;-84
2022/06/26 09:26:37;;;;;;;7.60;3.80;;;;;;;;;;5022415;28;20043;-85
2022/06/26 09:29:20;;;;;;;13.77;5.05;;;;;;;;;;5012751;28;20031;-85
2022/06/26 09:31:45;;;;;;;8.88;3.60;;;;;;;;;;5022309;28;20478;-86
2022/06/26 09:34:21;;;;;;;8.55;4.35;;;;;;;;;;5038640;28;20086;-85
2022/06/26 09:37:01;;;;;;;5.68;3.15;;;;;;;;;;5046208;28;20029;-83
2022/06/26 09:39:28;;;;;;;4.70;2.58;;;;;;;;;;5002734;28;20043;-86
2022/06/26 09:41:54;;;;;;;5.68;2.67;;;;;;;;;;5018781;28;20033;-86
2022/06/26 09:44:20;;;;;;;4.65;2.08;;;;;;;;;;5002916;28;20033;-88
2022/06/26 09:46:45;;;;;;;4.75;2.05;;;;;;;;;;5002619;28;20037;-89
2022/06/26 09:49:10;;;;;;;4.05;1.55;;;;;;;;;;5019309;28;20039;-88
2022/06/26 09:51:36;;;;;;;4.90;2.03;;;;;;;;;;5035507;28;20078;-89
2022/06/26 09:54:02;;;;;;;4.32;1.50;;;;;;;;;;5019159;28;20095;-88
2022/06/26 09:56:27;;;;;;;4.63;1.58;;;;;;;;;;5002810;28;20068;-89
2022/06/26 09:58:54;;;;;;;4.80;1.50;;;;;;;;;;5018282;28;20586;-89
2022/06/26 10:06:48;;;;;;;4.57;2.00;;;;;;;;;;5021619;28;20110;-89
2022/06/26 10:09:13;;;;;;;3.55;1.17;;;;;;;;;;5018931;28;20503;-89
2022/06/26 10:11:40;;;;;;;3.17;1.23;;;;;;;;;;5018813;28;20072;-89
2022/06/26 10:14:36;;;;;;;3.88;1.08;;;;;;;;;;5035236;28;20029;-88
2022/06/26 10:17:26;;;;;;;2.00;1.10;;;;;;;;;;5000362;28;20438;-88
2022/06/26 10:20:02;;;;;;;3.97;1.02;;;;;;;;;;5018075;28;20064;-88
2022/06/26 10:22:37;;;;;;;4.07;1.02;;;;;;;;;;5002440;28;20076;-87
2022/06/26 10:25:03;;;;;;;2.38;1.15;;;;;;;;;;5001699;28;20033;-87
2022/06/26 10:27:30;;;;;;;4.18;1.02;;;;;;;;;;5001588;28;20039;-87
2022/06/26 10:30:26;;;;;;;2.08;0.90;;;;;;;;;;5031587;28;20041;-87
2022/06/26 10:33:10;;;;;;;3.10;1.13;;;;;;;;;;5017819;28;20049;-87
2022/06/26 10:35:40;;;;;;;1.40;0.60;;;;;;;;;;5034306;28;20095;-86
2022/06/26 10:38:28;;;;;;;3.47;1.00;;;;;;;;;;5034691;28;20040;-88
2022/06/26 10:43:59;;;;;;;2.35;0.90;;;;;;;;;;5039878;28;20487;-87
2022/06/26 10:46:25;;;;;;;3.28;1.10;;;;;;;;;;5013079;28;20038;-87
2022/06/26 10:48:53;;;;;;;1.95;0.85;;;;;;;;;;5021516;28;20040;-87
2022/06/26 10:51:29;;;;;;;2.28;0.77;;;;;;;;;;5004938;28;20936;-86
2022/06/26 10:53:55;;;;;;;2.28;0.68;;;;;;;;;;5021278;28;20530;-86
2022/06/26 10:56:21;;;;;;;4.40;1.02;;;;;;;;;;5020921;28;20064;-85
2022/06/26 10:59:01;;;;;;;2.20;0.88;;;;;;;;;;5004877;28;20039;-86
2022/06/26 11:01:27;;;;;;;2.42;0.60;;;;;;;;;;5021015;28;20032;-82
2022/06/26 11:03:52;;;;;;;3.00;0.77;;;;;;;;;;5037035;28;20075;-83
2022/06/26 11:06:18;;;;;;;2.80;0.70;;;;;;;;;;5020771;28;20139;-85
2022/06/26 11:08:46;;;;;;;1.85;0.90;;;;;;;;;;5005463;28;20037;-88
2022/06/26 11:11:15;;;;;;;1.75;0.50;;;;;;;;;;5022847;28;20028;-90
2022/06/26 11:13:59;;;;;;;1.40;0.73;;;;;;;;;;5042239;28;20412;-88
2022/06/26 11:16:32;;;;;;;2.95;0.90;;;;;;;;;;5025473;28;20046;-84
2022/06/26 11:18:58;;;;;;;2.58;0.77;;;;;;;;;;5009423;28;20082;-90
2022/06/26 11:21:25;;;;;;;1.75;0.75;;;;;;;;;;5009880;28;20055;-92
2022/06/26 11:23:51;;;;;;;2.42;0.85;;;;;;;;;;5009510;28;20037;-90
2022/06/26 11:26:21;;;;;;;2.17;0.55;;;;;;;;;;5009410;28;20103;-90
2022/06/26 11:28:59;;;;;;;2.20;0.93;;;;;;;;;;5005855;28;20071;-90
2022/06/26 11:31:30;;;;;;;2.67;0.60;;;;;;;;;;5022183;28;20041;-87
2022/06/26 11:34:06;;;;;;;5.43;0.80;;;;;;;;;;5005673;28;20044;-92
2022/06/26 11:36:32;;;;;;;5.78;0.98;;;;;;;;;;5006974;28;20021;-90
2022/06/26 11:38:59;;;;;;;21.92;1.10;;;;;;;;;;5022172;28;20510;-88
2022/06/26 11:41:26;;;;;;;4.72;1.30;;;;;;;;;;5021304;28;20095;-89
2022/06/26 11:43:55;;;;;;;3.20;0.82;;;;;;;;;;5022205;28;20024;-88
2022/06/26 11:46:23;;;;;;;5.00;1.40;;;;;;;;;;5021705;28;20037;-91
2022/06/26 11:48:52;;;;;;;6.43;2.17;;;;;;;;;;5005273;28;20414;-91
2022/06/26 11:51:22;;;;;;;4.72;1.58;;;;;;;;;;5005542;28;20048;-91
2022/06/26 11:53:51;;;;;;;6.55;1.45;;;;;;;;;;5022356;28;20037;-89
2022/06/26 11:56:35;;;;;;;6.13;1.20;;;;;;;;;;5021673;28;20388;-92
2022/06/26 11:59:01;;;;;;;5.60;0.90;;;;;;;;;;5021949;28;20037;-89
2022/06/26 12:01:39;;;;;;;3.47;1.00;;;;;;;;;;5021199;28;20033;-90
2022/06/26 12:04:07;;;;;;;6.88;1.48;;;;;;;;;;5006283;28;20495;-90
2022/06/26 12:06:41;;;;;;;5.28;1.20;;;;;;;;;;5021775;28;20033;-90
2022/06/26 12:09:29;;;;;;;2.67;0.80;;;;;;;;;;5021336;28;20068;-89
2022/06/26 12:11:55;;;;;;;4.32;1.00;;;;;;;;;;5021322;28;20102;-89
2022/06/26 12:14:27;;;;;;;3.50;0.80;;;;;;;;;;5021555;28;20040;-90
2022/06/26 12:16:54;;;;;;;4.80;1.25;;;;;;;;;;5021522;28;20076;-88
2022/06/26 12:19:23;;;;;;;2.33;1.00;;;;;;;;;;5004792;28;20083;-88
2022/06/26 12:21:50;;;;;;;3.65;0.90;;;;;;;;;;5020970;28;20029;-89
2022/06/26 12:24:17;;;;;;;1.98;0.82;;;;;;;;;;5004048;28;20025;-89
2022/06/26 12:26:44;;;;;;;2.13;0.73;;;;;;;;;;5037625;28;20090;-88
2022/06/26 12:29:15;;;;;;;2.08;0.80;;;;;;;;;;5008353;28;20041;-89
2022/06/26 12:31:42;;;;;;;3.07;0.87;;;;;;;;;;5024232;28;20518;-89
2022/06/26 12:34:08;;;;;;;2.05;0.70;;;;;;;;;;5024594;28;20044;-90
2022/06/26 12:36:35;;;;;;;2.78;0.85;;;;;;;;;;5021171;28;20029;-89
2022/06/26 12:39:05;;;;;;;3.05;0.77;;;;;;;;;;5004448;28;20041;-90
2022/06/26 12:41:34;;;;;;;2.78;0.60;;;;;;;;;;5020600;28;20029;-90
2022/06/26 12:44:02;;;;;;;2.25;0.77;;;;;;;;;;5020926;28;20036;-90
2022/06/26 12:46:30;;;;;;;3.00;0.70;;;;;;;;;;5005098;28;20036;-91
2022/06/26 12:49:00;;;;;;;1.70;0.63;;;;;;;;;;5004727;28;20040;-90
2022/06/26 12:51:29;;;;;;;2.08;0.80;;;;;;;;;;5004664;28;20060;-92
2022/06/26 12:53:57;;;;;;;1.35;0.50;;;;;;;;;;5004995;28;20063;-90
2022/06/26 12:56:26;;;;;;;2.97;0.73;;;;;;;;;;5004830;28;20052;-88
2022/06/26 12:59:04;;;;;;;3.00;0.82;;;;;;;;;;5004763;28;20116;-90
2022/06/26 13:01:34;;;;;;;2.67;0.57;;;;;;;;;;5004215;28;20577;-92
2022/06/26 13:04:03;;;;;;;3.13;0.77;;;;;;;;;;5004935;28;20033;-91
2022/06/26 13:06:29;;;;;;;1.52;0.63;;;;;;;;;;5004084;28;20052;-91
2022/06/26 13:08:54;;;;;;;1.67;0.70;;;;;;;;;;5003284;28;20037;-91
2022/06/26 13:11:23;;;;;;;3.40;0.60;;;;;;;;;;5002590;28;20372;-91
2022/06/26 13:13:48;;;;;;;1.52;0.50;;;;;;;;;;5018917;28;20056;-91
2022/06/26 13:16:13;;;;;;;1.20;0.40;;;;;;;;;;5003379;28;20094;-92
2022/06/26 13:18:41;;;;;;;3.92;0.98;;;;;;;;;;5019577;28;20088;-93
2022/06/26 13:21:09;;;;;;;1.77;0.43;;;;;;;;;;5004033;28;20037;-94
2022/06/26 13:23:35;;;;;;;1.45;0.40;;;;;;;;;;5003224;28;20116;-90
2022/06/26 13:26:00;;;;;;;2.90;0.77;;;;;;;;;;5002992;28;20037;-90
2022/06/26 13:28:26;;;;;;;3.08;0.57;;;;;;;;;;5024492;28;20040;-90
2022/06/26 13:30:51;;;;;;;4.07;0.70;;;;;;;;;;5022619;28;20039;-92
2022/06/26 13:33:17;;;;;;;3.53;1.38;;;;;;;;;;5021558;28;20089;-92
2022/06/26 13:35:43;;;;;;;8.93;2.75;;;;;;;;;;5054980;28;20041;-86
2022/06/26 13:38:08;;;;;;;7.72;2.72;;;;;;;;;;5018768;28;20483;-86
2022/06/26 13:40:35;;;;;;;5.70;2.88;;;;;;;;;;5003157;28;20049;-87
2022/06/26 13:43:00;;;;;;;7.32;2.55;;;;;;;;;;5018788;28;20041;-86
2022/06/26 13:45:26;;;;;;;5.88;2.00;;;;;;;;;;4999181;28;20028;-89
2022/06/26 13:47:51;;;;;;;4.63;2.75;;;;;;;;;;5022044;28;20078;-87
2022/06/26 13:50:17;;;;;;;4.57;1.83;;;;;;;;;;5021688;28;20110;-86
2022/06/26 13:52:43;;;;;;;7.22;2.67;;;;;;;;;;5038899;28;20036;-88
2022/06/26 13:55:08;;;;;;;9.18;2.60;;;;;;;;;;5022216;28;20036;-88
2022/06/26 13:57:34;;;;;;;8.30;3.05;;;;;;;;;;5054649;28;20063;-87
2022/06/26 14:00:00;;;;;;;5.60;2.28;;;;;;;;;;5022043;28;20041;-87
2022/06/26 14:02:25;;;;;;;7.55;2.08;;;;;;;;;;5022191;28;20067;-87
2022/06/26 14:04:51;;;;;;;3.92;1.45;;;;;;;;;;5021940;28;20554;-86
2022/06/26 14:07:16;;;;;;;4.88;1.60;;;;;;;;;;5021528;28;20035;-87
2022/06/26 14:09:42;;;;;;;5.85;2.20;;;;;;;;;;5018792;28;20049;-87
2022/06/26 14:12:07;;;;;;;3.95;1.25;;;;;;;;;;5037038;28;20043;-88
2022/06/26 14:14:33;;;;;;;3.15;1.25;;;;;;;;;;5003789;28;20068;-87
2022/06/26 14:16:59;;;;;;;3.80;1.00;;;;;;;;;;4996050;28;20513;-87
2022/06/26 14:19:24;;;;;;;4.15;0.90;;;;;;;;;;5021537;28;20101;-89
2022/06/26 14:25:55;;;;;;;4.15;0.98;;;;;;;;;;5022495;28;20040;-86
2022/06/26 14:27:20;;;;;;;3.97;0.98;;;;;;;;;;5044016;28;20119;-88
2022/06/26 14:29:47;;;;;;;5.43;1.33;;;;;;;;;;5018440;28;20127;-84
2022/06/26 14:32:12;;;;;;;4.65;1.25;;;;;;;;;;5039052;28;20089;-86
2022/06/26 14:34:38;;;;;;;3.22;0.88;;;;;;;;;;5021819;28;20032;-87
2022/06/26 14:37:03;;;;;;;3.58;0.90;;;;;;;;;;5053338;28;20070;-88
2022/06/26 14:39:29;;;;;;;5.40;1.40;;;;;;;;;;5009998;28;20490;-88
2022/06/26 14:41:54;;;;;;;7.00;1.00;;;;;;;;;;5007377;28;20045;-88
2022/06/26 14:44:20;;;;;;;1.73;0.77;;;;;;;;;;5005026;28;20059;-87
2022/06/26 14:46:45;;;;;;;4.63;1.00;;;;;;;;;;5021205;28;20552;-88
2022/06/26 14:49:10;;;;;;;2.65;0.60;;;;;;;;;;5021089;28;20051;-87
2022/06/26 14:51:36;;;;;;;1.75;0.60;;;;;;;;;;5038532;28;20499;-88
2022/06/26 14:54:01;;;;;;;2.67;0.80;;;;;;;;;;5039320;28;20044;-86
2022/06/26 14:56:27;;;;;;;2.60;0.70;;;;;;;;;;5005365;28;20131;-86
2022/06/26 14:58:53;;;;;;;2.17;0.75;;;;;;;;;;5022108;28;20486;-87